createdAt,value
2023-01-26T00:02:21.115Z,4.18
2023-01-26T00:04:48.158Z,6.05
2023-01-26T00:07:15.400Z,2.70
2023-01-26T00:09:42.483Z,2.42
2023-01-26T00:12:09.645Z,5.85
2023-01-26T00:14:50.108Z,2.75
2023-01-26T00:17:25.906Z,3.70
2023-01-26T00:19:55.256Z,2.58
2023-01-26T00:22:22.974Z,3.40
2023-01-26T00:24:50.079Z,1.88
2023-01-26T00:27:17.358Z,3.17
2023-01-26T00:29:44.495Z,2.33
2023-01-26T00:32:11.635Z,1.58
2023-01-26T00:34:38.800Z,3.17
2023-01-26T00:37:05.922Z,3.80
2023-01-26T00:39:33.108Z,4.60
2023-01-26T00:42:13.889Z,4.15
2023-01-26T00:44:42.125Z,2.88
2023-01-26T00:47:10.505Z,3.33
2023-01-26T00:49:37.659Z,1.60
2023-01-26T00:52:05.210Z,3.92
2023-01-26T00:54:32.441Z,3.63
2023-01-26T00:56:59.824Z,2.72
2023-01-26T00:59:27.000Z,4.45
2023-01-26T01:01:54.516Z,2.92
2023-01-26T01:04:21.948Z,3.88
2023-01-26T01:06:49.085Z,2.80
2023-01-26T01:09:16.417Z,1.25
2023-01-26T01:11:43.933Z,7.82
2023-01-26T01:14:11.172Z,4.28
2023-01-26T01:16:38.341Z,1.58
2023-01-26T01:19:05.490Z,1.20
2023-01-26T01:21:33.046Z,0.80
2023-01-26T01:24:00.683Z,1.20
2023-01-26T01:26:27.887Z,2.47
2023-01-26T01:28:57.741Z,3.22
2023-01-26T01:31:26.099Z,2.72
2023-01-26T01:33:54.078Z,2.42
2023-01-26T01:36:21.181Z,1.52
2023-01-26T01:38:48.704Z,3.08
2023-01-26T01:41:17.102Z,2.40
2023-01-26T01:43:44.269Z,2.83
2023-01-26T01:46:11.482Z,1.15
2023-01-26T01:48:50.875Z,2.33
2023-01-26T01:51:20.944Z,1.15
2023-01-26T01:53:50.278Z,1.90
2023-01-26T01:56:21.535Z,3.60
2023-01-26T01:58:49.702Z,2.03
2023-01-26T02:01:16.909Z,2.38
2023-01-26T02:03:45.760Z,2.00
2023-01-26T02:06:12.808Z,1.77
2023-01-26T02:08:41.495Z,1.45
2023-01-26T02:11:10.463Z,1.38
2023-01-26T02:13:37.925Z,0.55
2023-01-26T02:16:05.271Z,1.05
2023-01-26T02:18:32.438Z,2.88
2023-01-26T02:21:03.909Z,1.42
2023-01-26T02:23:30.972Z,2.83
2023-01-26T02:26:01.167Z,2.17
2023-01-26T02:28:28.639Z,1.35
2023-01-26T02:30:56.831Z,2.30
2023-01-26T02:33:25.490Z,1.17
2023-01-26T02:35:52.704Z,3.13
2023-01-26T02:38:20.525Z,1.67
2023-01-26T02:40:55.245Z,1.08
2023-01-26T02:43:23.356Z,2.00
2023-01-26T02:45:50.481Z,1.05
2023-01-26T02:48:37.687Z,3.28
2023-01-26T02:51:05.082Z,2.50
2023-01-26T02:53:32.611Z,2.50
2023-01-26T02:55:59.873Z,2.78
2023-01-26T02:58:26.991Z,2.28
2023-01-26T03:00:54.262Z,2.50
2023-01-26T03:03:41.368Z,2.95
2023-01-26T03:06:15.235Z,1.85
2023-01-26T03:08:42.444Z,2.42
2023-01-26T03:11:09.740Z,1.77
2023-01-26T03:13:36.921Z,2.17
2023-01-26T03:16:07.447Z,3.22
2023-01-26T03:18:54.604Z,3.05
2023-01-26T03:21:40.733Z,1.85
2023-01-26T03:24:30.669Z,1.20
2023-01-26T03:27:16.602Z,2.70
2023-01-26T03:29:43.842Z,1.48
2023-01-26T03:32:11.845Z,2.55
2023-01-26T03:34:39.184Z,1.90
2023-01-26T03:37:06.432Z,2.58
2023-01-26T03:39:52.227Z,2.05
2023-01-26T03:42:38.261Z,2.03
2023-01-26T03:45:24.788Z,0.68
2023-01-26T03:48:10.870Z,3.85
2023-01-26T03:50:56.863Z,2.97
2023-01-26T03:53:43.845Z,3.03
2023-01-26T03:56:22.313Z,2.38
2023-01-26T03:58:51.896Z,2.40
2023-01-26T04:01:26.443Z,3.05
2023-01-26T04:04:13.276Z,2.40
2023-01-26T04:07:00.524Z,1.75
2023-01-26T04:09:27.991Z,2.05
2023-01-26T04:11:55.267Z,1.55
2023-01-26T04:14:50.106Z,2.17
2023-01-26T04:17:36.673Z,0.95
2023-01-26T04:20:22.695Z,2.97
2023-01-26T04:22:49.782Z,2.75
2023-01-26T04:25:18.346Z,2.00
2023-01-26T04:27:46.145Z,1.98
2023-01-26T04:30:14.202Z,3.80
2023-01-26T04:32:41.367Z,3.10
2023-01-26T04:35:09.416Z,2.50
2023-01-26T04:37:36.542Z,2.85
2023-01-26T04:40:04.481Z,2.95
2023-01-26T04:42:31.678Z,2.88
2023-01-26T04:44:59.121Z,0.45
2023-01-26T04:47:28.325Z,3.42
2023-01-26T04:49:56.357Z,1.85
2023-01-26T04:52:23.619Z,0.88
2023-01-26T04:54:50.745Z,1.33
2023-01-26T04:57:20.615Z,1.88
2023-01-26T04:59:47.773Z,1.58
2023-01-26T05:02:15.244Z,1.27
2023-01-26T05:04:42.479Z,1.02
2023-01-26T05:07:09.755Z,2.03
2023-01-26T05:09:36.823Z,1.88
2023-01-26T05:12:23.922Z,1.60
2023-01-26T05:14:51.050Z,1.17
2023-01-26T05:17:18.164Z,1.20
2023-01-26T05:19:45.307Z,1.38
2023-01-26T05:22:12.825Z,0.85
2023-01-26T05:24:40.042Z,1.17
2023-01-26T05:27:22.211Z,2.25
2023-01-26T05:29:49.855Z,1.65
2023-01-26T05:32:17.154Z,1.90
2023-01-26T05:34:44.458Z,1.23
2023-01-26T05:37:13.719Z,2.75
2023-01-26T05:39:41.880Z,3.15
2023-01-26T05:42:09.160Z,2.45
2023-01-26T05:44:36.317Z,0.63
2023-01-26T05:47:03.465Z,1.58
2023-01-26T05:49:30.578Z,0.85
2023-01-26T05:51:57.794Z,2.00
2023-01-26T05:54:24.842Z,1.52
2023-01-26T05:56:53.443Z,1.35
2023-01-26T05:59:20.657Z,1.17
2023-01-26T06:01:47.789Z,1.95
2023-01-26T06:04:14.957Z,1.30
2023-01-26T06:06:42.252Z,2.63
2023-01-26T06:09:09.325Z,2.25
2023-01-26T06:11:36.450Z,0.95
2023-01-26T06:14:03.829Z,1.30
2023-01-26T06:16:31.073Z,2.08
2023-01-26T06:18:58.214Z,1.85
2023-01-26T06:21:25.355Z,1.77
2023-01-26T06:23:52.583Z,1.38
2023-01-26T06:26:19.709Z,2.65
2023-01-26T06:28:46.903Z,1.38
2023-01-26T06:31:14.466Z,1.15
2023-01-26T06:33:41.820Z,1.83
2023-01-26T06:36:10.625Z,0.90
2023-01-26T06:38:37.884Z,0.90
2023-01-26T06:41:05.996Z,1.13
2023-01-26T06:43:33.721Z,1.13
2023-01-26T06:46:01.379Z,2.25
2023-01-26T06:48:29.783Z,0.93
2023-01-26T06:50:58.006Z,1.75
2023-01-26T06:53:34.565Z,1.05
2023-01-26T06:56:01.793Z,0.80
2023-01-26T06:58:28.963Z,1.80
2023-01-26T07:00:56.542Z,1.65
2023-01-26T07:03:24.350Z,1.90
2023-01-26T07:05:51.467Z,1.33
2023-01-26T07:08:18.762Z,1.25
2023-01-26T07:10:48.028Z,1.75
2023-01-26T07:13:15.102Z,2.10
2023-01-26T07:15:42.196Z,2.60
2023-01-26T07:18:10.366Z,1.63
2023-01-26T07:20:37.644Z,1.05
2023-01-26T07:23:04.821Z,0.73
2023-01-26T07:25:31.920Z,2.42
2023-01-26T07:27:59.208Z,2.28
2023-01-26T07:30:26.878Z,1.42
2023-01-26T07:32:53.985Z,2.63
2023-01-26T07:35:21.037Z,1.70
2023-01-26T07:37:48.100Z,1.13
2023-01-26T07:40:15.248Z,1.60
2023-01-26T07:42:42.378Z,0.75
2023-01-26T07:45:09.829Z,1.15
2023-01-26T07:47:37.587Z,1.25
2023-01-26T07:50:07.262Z,1.20
2023-01-26T07:52:34.332Z,1.30
2023-01-26T07:55:01.431Z,3.03
2023-01-26T07:57:28.554Z,1.98
2023-01-26T07:59:55.867Z,3.00
2023-01-26T08:02:22.981Z,2.40
2023-01-26T08:04:50.128Z,1.85
2023-01-26T08:07:17.794Z,1.15
2023-01-26T08:09:44.956Z,1.65
2023-01-26T08:12:12.096Z,1.17
2023-01-26T08:14:46.762Z,2.40
2023-01-26T08:17:17.344Z,1.90
2023-01-26T08:19:45.049Z,2.13
2023-01-26T08:22:12.258Z,1.05
2023-01-26T08:24:39.343Z,1.55
2023-01-26T08:27:06.489Z,1.90
2023-01-26T08:29:33.707Z,2.30
2023-01-26T08:32:00.972Z,1.00
2023-01-26T08:34:28.355Z,1.40
2023-01-26T08:36:55.477Z,1.23
2023-01-26T08:39:22.544Z,1.33
2023-01-26T08:41:50.804Z,1.90
2023-01-26T08:44:17.951Z,0.73
2023-01-26T08:46:45.209Z,0.82
2023-01-26T08:49:12.485Z,1.27
2023-01-26T08:51:39.763Z,2.05
2023-01-26T08:54:10.782Z,0.75
2023-01-26T08:56:37.917Z,1.30
2023-01-26T08:59:05.103Z,1.02
2023-01-26T09:01:32.324Z,0.63
2023-01-26T09:04:00.191Z,1.05
2023-01-26T09:06:28.455Z,0.55
2023-01-26T09:08:55.627Z,1.08
2023-01-26T09:11:22.801Z,1.60
2023-01-26T09:13:59.228Z,2.97
2023-01-26T09:16:26.417Z,1.52
2023-01-26T09:18:54.039Z,1.25
2023-01-26T09:21:23.891Z,0.93
2023-01-26T09:23:51.263Z,0.70
2023-01-26T09:26:18.968Z,1.27
2023-01-26T09:28:46.165Z,2.28
2023-01-26T09:31:13.513Z,1.80
2023-01-26T09:33:40.764Z,1.10
2023-01-26T09:36:09.143Z,1.42
2023-01-26T09:38:36.320Z,0.77
2023-01-26T09:41:22.464Z,0.77
2023-01-26T09:43:52.589Z,1.35
2023-01-26T09:46:24.372Z,1.20
2023-01-26T09:49:11.766Z,0.98
2023-01-26T09:51:38.863Z,0.82
2023-01-26T09:54:24.706Z,1.23
2023-01-26T09:56:51.871Z,1.85
2023-01-26T09:59:28.418Z,0.90
2023-01-26T10:02:14.182Z,0.32
2023-01-26T10:04:43.142Z,1.98
2023-01-26T10:07:12.013Z,2.97
2023-01-26T10:09:45.782Z,1.58
2023-01-26T10:12:22.211Z,1.67
2023-01-26T10:14:57.444Z,1.40
2023-01-26T10:17:32.674Z,1.15
2023-01-26T10:20:22.763Z,0.70
2023-01-26T10:22:53.170Z,0.88
2023-01-26T10:25:25.260Z,1.05
2023-01-26T10:27:53.459Z,3.22
2023-01-26T10:30:21.696Z,1.95
2023-01-26T10:32:51.708Z,1.50
2023-01-26T10:35:20.177Z,0.55
2023-01-26T10:37:47.572Z,1.70
2023-01-26T10:40:14.732Z,3.42
2023-01-26T10:42:42.151Z,3.17
2023-01-26T10:45:27.842Z,1.77
2023-01-26T10:48:04.102Z,2.00
2023-01-26T10:50:32.178Z,0.68
2023-01-26T10:53:03.987Z,2.75
2023-01-26T10:55:31.902Z,2.70
2023-01-26T10:57:59.284Z,0.77
2023-01-26T11:00:29.179Z,1.45
2023-01-26T11:03:00.358Z,3.72
2023-01-26T11:05:28.294Z,2.25
2023-01-26T11:08:00.292Z,2.85
2023-01-26T11:10:28.969Z,1.33
2023-01-26T11:13:08.721Z,1.65
2023-01-26T11:15:38.679Z,1.05
2023-01-26T11:18:14.051Z,1.58
2023-01-26T11:21:00.162Z,1.10
2023-01-26T11:23:33.566Z,0.60
2023-01-26T11:26:19.351Z,1.27
2023-01-26T11:29:05.326Z,1.98
2023-01-26T11:31:51.442Z,0.90
2023-01-26T11:34:18.597Z,3.08
2023-01-26T11:36:54.631Z,2.15
2023-01-26T11:39:27.826Z,2.00
2023-01-26T11:42:18.427Z,1.95
2023-01-26T11:44:54.307Z,2.10
2023-01-26T11:47:24.617Z,2.22
2023-01-26T11:50:06.938Z,0.82
2023-01-26T11:52:46.087Z,2.45
2023-01-26T11:55:28.551Z,2.17
2023-01-26T11:58:08.223Z,1.60
2023-01-26T12:00:41.237Z,1.63
2023-01-26T12:03:16.469Z,2.67
2023-01-26T12:05:44.956Z,1.63
2023-01-26T12:08:30.472Z,2.17
2023-01-26T12:11:20.685Z,3.22
2023-01-26T12:13:50.192Z,3.53
2023-01-26T12:16:41.018Z,5.18
2023-01-26T12:19:11.161Z,2.53
2023-01-26T12:21:40.022Z,1.20
2023-01-26T12:24:30.500Z,2.13
2023-01-26T12:26:57.155Z,1.58
2023-01-26T12:29:24.217Z,2.30
2023-01-26T12:31:58.738Z,2.63
2023-01-26T12:34:32.105Z,2.78
2023-01-26T12:37:10.327Z,2.17
2023-01-26T12:39:45.630Z,1.02
2023-01-26T12:42:18.245Z,1.42
2023-01-26T12:44:55.669Z,1.50
2023-01-26T12:47:31.501Z,3.17
2023-01-26T12:49:58.803Z,1.85
2023-01-26T12:52:44.646Z,1.20
2023-01-26T12:55:15.470Z,1.58
2023-01-26T12:57:45.697Z,1.40
2023-01-26T13:00:19.162Z,0.98
2023-01-26T13:02:47.540Z,0.85
2023-01-26T13:05:24.677Z,0.70
2023-01-26T13:07:51.830Z,1.45
2023-01-26T13:10:19.364Z,0.55
2023-01-26T13:12:57.129Z,1.17
2023-01-26T13:15:29.077Z,1.15
2023-01-26T13:17:56.289Z,0.65
2023-01-26T13:20:43.334Z,0.38
2023-01-26T13:23:28.831Z,1.90
2023-01-26T13:26:15.721Z,0.65
2023-01-26T13:28:43.407Z,0.40
2023-01-26T13:31:11.662Z,1.00
2023-01-26T13:33:39.807Z,0.85
2023-01-26T13:36:12.434Z,1.05
2023-01-26T13:38:53.540Z,0.20
2023-01-26T13:41:21.463Z,0.82
2023-01-26T13:43:54.124Z,0.35
2023-01-26T13:46:29.264Z,0.30
2023-01-26T13:48:56.966Z,0.63
2023-01-26T13:51:27.970Z,0.73
2023-01-26T13:54:05.363Z,0.57
2023-01-26T13:56:34.346Z,1.58
2023-01-26T13:59:10.207Z,0.20
2023-01-26T14:01:44.496Z,0.30
2023-01-26T14:04:16.170Z,0.15
2023-01-26T14:06:44.449Z,0.10
2023-01-26T14:09:13.309Z,0.25
2023-01-26T14:11:40.807Z,2.35
2023-01-26T14:14:18.288Z,0.25
2023-01-26T14:16:45.642Z,0.25
2023-01-26T14:19:17.469Z,0.20
2023-01-26T14:21:55.953Z,1.63
2023-01-26T14:24:32.230Z,0.57
2023-01-26T14:26:59.669Z,2.75
2023-01-26T14:29:27.511Z,0.63
2023-01-26T14:31:56.605Z,0.95
2023-01-26T14:34:25.641Z,0.38
2023-01-26T14:37:06.011Z,0.28
2023-01-26T14:39:33.223Z,0.65
2023-01-26T14:42:01.288Z,0.35
2023-01-26T14:44:28.454Z,0.30
2023-01-26T14:47:03.276Z,1.00
2023-01-26T14:49:51.558Z,0.75
2023-01-26T14:52:23.980Z,0.20
2023-01-26T14:54:52.051Z,0.68
2023-01-26T14:57:20.998Z,1.42
2023-01-26T14:59:49.744Z,2.05
2023-01-26T15:02:18.086Z,0.13
2023-01-26T15:04:49.084Z,0.10
2023-01-26T15:07:23.584Z,0.20
2023-01-26T15:09:54.321Z,0.17
2023-01-26T15:12:21.892Z,0.47
2023-01-26T15:14:50.693Z,0.57
2023-01-26T15:17:36.511Z,0.30
2023-01-26T15:20:04.532Z,0.40
2023-01-26T15:22:32.505Z,0.17
2023-01-26T15:25:00.767Z,0.63
2023-01-26T15:27:35.231Z,0.20
2023-01-26T15:30:02.729Z,0.30
2023-01-26T15:32:32.388Z,1.17
2023-01-26T15:35:07.310Z,0.10
2023-01-26T15:37:36.159Z,0.40
2023-01-26T15:40:04.337Z,0.20
2023-01-26T15:42:33.058Z,0.40
2023-01-26T15:45:00.255Z,0.43
2023-01-26T15:47:27.599Z,0.10
2023-01-26T15:49:54.758Z,1.33
2023-01-26T15:52:25.906Z,0.20
2023-01-26T15:54:53.996Z,0.55
2023-01-26T15:57:21.277Z,0.10
2023-01-26T15:59:48.590Z,0.20
2023-01-26T16:02:16.912Z,0.85
2023-01-26T16:04:44.688Z,0.10
2023-01-26T16:07:17.315Z,0.52
2023-01-26T16:09:44.589Z,0.15
2023-01-26T16:12:25.920Z,0.20
2023-01-26T16:14:57.936Z,0.22
2023-01-26T16:17:25.117Z,0.30
2023-01-26T16:19:52.251Z,0.22
2023-01-26T16:22:19.459Z,1.00
2023-01-26T16:24:47.177Z,0.45
2023-01-26T16:27:14.437Z,0.38
2023-01-26T16:29:41.535Z,0.20
2023-01-26T16:32:28.027Z,1.35
2023-01-26T16:34:55.146Z,0.20
2023-01-26T16:37:22.254Z,0.10
2023-01-26T16:39:49.345Z,0.45
2023-01-26T16:42:19.278Z,0.95
2023-01-26T16:44:46.937Z,0.55
2023-01-26T16:47:14.334Z,0.63
2023-01-26T16:49:41.481Z,0.68
2023-01-26T16:52:09.018Z,0.28
2023-01-26T16:54:36.264Z,1.83
2023-01-26T16:57:03.469Z,0.73
2023-01-26T16:59:30.581Z,0.75
2023-01-26T17:01:57.869Z,0.45
2023-01-26T17:04:25.079Z,0.25
2023-01-26T17:06:52.261Z,0.47
2023-01-26T17:09:20.950Z,0.28
2023-01-26T17:11:48.298Z,0.10
2023-01-26T17:14:15.549Z,0.40
2023-01-26T17:16:42.770Z,0.40
2023-01-26T17:19:09.976Z,0.10
2023-01-26T17:21:37.266Z,0.38
2023-01-26T17:24:06.777Z,0.28
2023-01-26T17:26:33.914Z,0.20
2023-01-26T17:29:01.152Z,1.77
2023-01-26T17:31:28.695Z,0.28
2023-01-26T17:33:56.052Z,0.30
2023-01-26T17:36:23.174Z,0.93
2023-01-26T17:38:50.647Z,1.65
2023-01-26T17:41:17.953Z,0.70
2023-01-26T17:43:45.402Z,0.57
2023-01-26T17:46:13.897Z,0.10
2023-01-26T17:48:41.896Z,0.30
2023-01-26T17:51:10.429Z,0.20
2023-01-26T17:53:38.806Z,0.13
2023-01-26T17:56:08.421Z,0.30
2023-01-26T17:58:35.991Z,0.20
2023-01-26T18:01:03.186Z,0.20
2023-01-26T18:03:30.503Z,0.32
2023-01-26T18:05:58.052Z,0.20
2023-01-26T18:08:25.524Z,0.65
2023-01-26T18:10:59.948Z,0.30
2023-01-26T18:13:27.203Z,0.55
2023-01-26T18:15:55.059Z,0.10
2023-01-26T18:18:25.486Z,0.32
2023-01-26T18:20:53.041Z,0.45
2023-01-26T18:23:20.734Z,0.40
2023-01-26T18:25:48.471Z,0.20
2023-01-26T18:28:16.050Z,0.10
2023-01-26T18:30:43.422Z,0.40
2023-01-26T18:33:10.696Z,0.20
2023-01-26T18:35:37.914Z,0.10
2023-01-26T18:38:05.090Z,0.20
2023-01-26T18:40:32.447Z,0.73
2023-01-26T18:42:59.670Z,0.60
2023-01-26T18:45:26.911Z,0.90
2023-01-26T18:47:55.120Z,0.20
2023-01-26T18:50:22.336Z,0.20
2023-01-26T18:52:49.422Z,0.75
2023-01-26T18:55:16.686Z,0.40
2023-01-26T18:57:44.033Z,0.55
2023-01-26T19:00:11.812Z,0.10
2023-01-26T19:02:39.562Z,1.52
2023-01-26T19:05:07.899Z,0.35
2023-01-26T19:07:35.686Z,1.98
2023-01-26T19:10:04.865Z,0.40
2023-01-26T19:12:32.216Z,3.88
2023-01-26T19:14:59.393Z,1.75
2023-01-26T19:17:26.544Z,0.40
2023-01-26T19:19:53.693Z,1.40
2023-01-26T19:22:21.584Z,0.17
2023-01-26T19:24:48.742Z,0.20
2023-01-26T19:27:15.892Z,0.10
2023-01-26T19:29:43.042Z,0.63
2023-01-26T19:32:10.346Z,0.82
2023-01-26T19:34:37.505Z,1.40
2023-01-26T19:37:04.854Z,1.10
2023-01-26T19:39:31.940Z,1.08
2023-01-26T19:41:59.057Z,0.30
2023-01-26T19:44:26.310Z,1.13
2023-01-26T19:46:54.588Z,0.10
2023-01-26T19:49:21.846Z,0.35
2023-01-26T19:51:49.533Z,0.57
2023-01-26T19:54:16.669Z,0.57
2023-01-26T19:56:43.761Z,0.10
2023-01-26T19:59:11.720Z,0.20
2023-01-26T20:01:39.160Z,0.63
2023-01-26T20:04:08.878Z,0.20
2023-01-26T20:06:37.229Z,0.20
2023-01-26T20:09:04.927Z,0.20
2023-01-26T20:11:32.150Z,0.20
2023-01-26T20:14:00.148Z,0.80
2023-01-26T20:16:31.099Z,0.85
2023-01-26T20:18:59.305Z,1.95
2023-01-26T20:21:27.206Z,1.08
2023-01-26T20:23:56.030Z,0.20
2023-01-26T20:26:24.737Z,0.73
2023-01-26T20:28:52.283Z,0.35
2023-01-26T20:31:21.090Z,1.58
2023-01-26T20:33:49.057Z,0.50
2023-01-26T20:36:18.306Z,0.40
2023-01-26T20:38:46.469Z,0.75
2023-01-26T20:41:15.578Z,0.20
2023-01-26T20:43:58.100Z,0.28
2023-01-26T20:46:26.461Z,0.20
2023-01-26T20:48:55.787Z,0.93
2023-01-26T20:51:24.415Z,0.45
2023-01-26T20:53:51.893Z,0.20
2023-01-26T20:56:23.315Z,0.75
2023-01-26T20:58:52.861Z,0.85
2023-01-26T21:01:20.343Z,0.95
2023-01-26T21:03:47.520Z,0.30
2023-01-26T21:06:15.751Z,0.28
2023-01-26T21:08:43.404Z,0.32
2023-01-26T21:11:13.002Z,0.63
2023-01-26T21:13:43.591Z,0.73
2023-01-26T21:16:11.655Z,2.28
2023-01-26T21:18:38.964Z,0.90
2023-01-26T21:21:07.155Z,0.20
2023-01-26T21:23:34.803Z,0.43
2023-01-26T21:26:03.220Z,0.32
2023-01-26T21:28:30.460Z,1.13
2023-01-26T21:31:05.292Z,0.47
2023-01-26T21:33:33.466Z,0.57
2023-01-26T21:36:01.755Z,1.15
2023-01-26T21:38:31.552Z,0.10
2023-01-26T21:40:59.946Z,1.58
2023-01-26T21:43:27.467Z,0.47
2023-01-26T21:45:58.435Z,0.65
2023-01-26T21:48:35.519Z,0.40
2023-01-26T21:51:21.701Z,1.35
2023-01-26T21:53:48.858Z,0.20
2023-01-26T21:56:16.329Z,0.80
2023-01-26T21:58:58.737Z,1.13
2023-01-26T22:01:26.041Z,0.10
2023-01-26T22:04:00.645Z,0.40
2023-01-26T22:06:28.079Z,0.20
2023-01-26T22:08:55.521Z,1.88
2023-01-26T22:11:22.774Z,0.55
2023-01-26T22:13:50.013Z,0.20
2023-01-26T22:16:17.507Z,0.43
2023-01-26T22:18:45.795Z,1.40
2023-01-26T22:21:13.346Z,0.10
2023-01-26T22:23:40.948Z,0.13
2023-01-26T22:26:11.997Z,0.10
2023-01-26T22:28:39.425Z,0.65
2023-01-26T22:31:07.337Z,0.30
2023-01-26T22:33:35.110Z,0.20
2023-01-26T22:36:04.961Z,1.65
2023-01-26T22:38:33.087Z,0.20
2023-01-26T22:41:00.364Z,0.13
2023-01-26T22:43:28.075Z,0.20
2023-01-26T22:45:55.535Z,0.25
2023-01-26T22:48:24.985Z,0.10
2023-01-26T22:50:52.127Z,0.10
2023-01-26T22:53:19.240Z,0.63
2023-01-26T22:55:51.722Z,1.23
2023-01-26T22:58:19.423Z,0.43
2023-01-26T23:00:46.895Z,0.43
2023-01-26T23:03:14.867Z,0.73
2023-01-26T23:05:42.135Z,1.45
2023-01-26T23:08:09.244Z,1.35
2023-01-26T23:10:36.499Z,0.28
2023-01-26T23:13:03.631Z,0.55
2023-01-26T23:15:30.715Z,0.90
2023-01-26T23:17:57.892Z,0.40
2023-01-26T23:20:25.302Z,0.20
2023-01-26T23:22:52.401Z,0.35
2023-01-26T23:25:38.258Z,0.50
2023-01-26T23:28:05.495Z,0.65
2023-01-26T23:30:32.685Z,0.20
2023-01-26T23:32:59.903Z,0.40
2023-01-26T23:35:27.173Z,1.35
2023-01-26T23:37:54.303Z,0.20
2023-01-26T23:40:21.428Z,0.20
2023-01-26T23:43:06.751Z,0.30
2023-01-26T23:45:35.902Z,0.75
2023-01-26T23:48:03.080Z,0.20
2023-01-26T23:50:30.590Z,0.25
2023-01-26T23:52:57.747Z,0.38
2023-01-26T23:55:24.888Z,0.60
2023-01-26T23:57:52.095Z,1.00
